createdAt,value
2023-05-07T00:00:26.797Z,43.00
2023-05-07T00:02:53.901Z,44.90
2023-05-07T00:05:20.719Z,43.35
2023-05-07T00:07:48.248Z,38.92
2023-05-07T00:10:14.929Z,32.42
2023-05-07T00:12:42.043Z,34.00
2023-05-07T00:15:09.563Z,35.38
2023-05-07T00:17:36.972Z,33.67
2023-05-07T00:20:04.813Z,36.35
2023-05-07T00:22:33.262Z,30.85
2023-05-07T00:25:00.167Z,37.88
2023-05-07T00:27:26.892Z,29.48
2023-05-07T00:29:53.428Z,37.63
2023-05-07T00:32:20.472Z,34.95
2023-05-07T00:34:50.238Z,35.78
2023-05-07T00:37:17.114Z,34.47
2023-05-07T00:39:43.631Z,37.53
2023-05-07T00:42:10.236Z,37.65
2023-05-07T00:44:36.872Z,34.67
2023-05-07T00:47:08.308Z,32.63
2023-05-07T00:49:43.691Z,35.55
2023-05-07T00:52:14.012Z,36.00
2023-05-07T00:54:41.762Z,32.25
2023-05-07T00:57:10.546Z,37.03
2023-05-07T00:59:37.157Z,35.58
2023-05-07T01:02:03.874Z,32.40
2023-05-07T01:04:30.652Z,33.78
2023-05-07T01:06:59.381Z,35.25
2023-05-07T01:09:27.498Z,40.00
2023-05-07T01:11:56.189Z,43.60
2023-05-07T01:14:23.214Z,47.05
2023-05-07T01:16:52.011Z,45.78
2023-05-07T01:19:21.154Z,45.92
2023-05-07T01:21:50.106Z,42.63
2023-05-07T01:24:19.320Z,46.70
2023-05-07T01:26:45.994Z,43.53
2023-05-07T01:29:14.928Z,47.17
2023-05-07T01:31:43.722Z,47.45
2023-05-07T01:34:12.342Z,47.25
2023-05-07T01:36:40.718Z,48.88
2023-05-07T01:39:08.861Z,56.08
2023-05-07T01:41:36.209Z,48.08
2023-05-07T01:44:04.575Z,43.83
2023-05-07T01:46:32.436Z,43.05
2023-05-07T01:48:59.664Z,42.28
2023-05-07T01:51:27.161Z,47.80
2023-05-07T01:53:54.287Z,39.42
2023-05-07T01:56:22.009Z,36.08
2023-05-07T01:58:50.567Z,36.15
2023-05-07T02:01:17.151Z,37.78
2023-05-07T02:03:44.318Z,38.97
2023-05-07T02:06:20.271Z,29.40
2023-05-07T02:08:48.411Z,32.58
2023-05-07T02:11:16.347Z,33.42
2023-05-07T02:13:43.348Z,30.75
2023-05-07T02:16:11.789Z,34.90
2023-05-07T02:21:02.927Z,38.40
2023-05-07T02:25:50.957Z,33.25
2023-05-07T02:28:18.210Z,26.38
2023-05-07T02:31:01.875Z,26.73
2023-05-07T02:33:30.390Z,27.90
2023-05-07T02:35:57.117Z,27.17
2023-05-07T02:38:24.361Z,21.90
2023-05-07T02:40:50.849Z,22.50
2023-05-07T02:43:17.480Z,22.45
2023-05-07T02:45:47.207Z,24.92
2023-05-07T02:48:14.779Z,25.52
2023-05-07T02:50:41.677Z,19.83
2023-05-07T02:53:08.600Z,21.75
2023-05-07T02:55:35.092Z,22.17
2023-05-07T02:58:01.930Z,19.75
2023-05-07T03:00:31.899Z,20.45
2023-05-07T03:03:11.910Z,23.77
2023-05-07T03:05:38.685Z,16.58
2023-05-07T03:08:05.507Z,16.00
2023-05-07T03:10:32.281Z,15.30
2023-05-07T03:12:58.957Z,16.73
2023-05-07T03:15:25.775Z,13.23
2023-05-07T03:17:53.361Z,9.95
2023-05-07T03:20:20.035Z,10.80
2023-05-07T03:22:46.689Z,11.40
2023-05-07T03:25:13.613Z,10.77
2023-05-07T03:27:40.185Z,8.73
2023-05-07T03:30:08.715Z,11.07
2023-05-07T03:32:36.345Z,7.60
2023-05-07T03:35:06.795Z,8.35
2023-05-07T03:37:33.967Z,9.57
2023-05-07T03:40:00.760Z,10.07
2023-05-07T03:42:27.996Z,7.93
2023-05-07T03:44:54.654Z,7.72
2023-05-07T03:47:21.799Z,11.88
2023-05-07T03:49:50.255Z,7.60
2023-05-07T03:52:17.185Z,9.15
2023-05-07T03:54:43.922Z,8.80
2023-05-07T03:57:12.726Z,8.27
2023-05-07T03:59:40.185Z,8.60
2023-05-07T04:04:28.503Z,9.32
2023-05-07T04:06:56.578Z,8.75
2023-05-07T04:09:23.256Z,11.25
2023-05-07T04:11:50.502Z,11.48
2023-05-07T04:14:17.068Z,11.50
2023-05-07T04:16:43.910Z,8.43
2023-05-07T04:19:10.605Z,7.05
2023-05-07T04:21:39.278Z,9.15
2023-05-07T04:24:06.266Z,12.80
2023-05-07T04:26:33.345Z,8.45
2023-05-07T04:29:00.820Z,7.03
2023-05-07T04:31:32.722Z,6.15
2023-05-07T04:33:59.549Z,5.88
2023-05-07T04:36:28.499Z,8.07
2023-05-07T04:39:00.397Z,6.93
2023-05-07T04:41:27.524Z,6.43
2023-05-07T04:43:54.326Z,13.10
2023-05-07T04:46:24.959Z,9.75
2023-05-07T04:48:52.455Z,10.52
2023-05-07T04:51:18.962Z,8.40
2023-05-07T04:53:45.708Z,8.40
2023-05-07T04:56:12.258Z,8.65
2023-05-07T04:58:42.192Z,7.05
2023-05-07T05:01:09.734Z,7.80
2023-05-07T05:03:37.880Z,7.07
2023-05-07T05:06:04.597Z,5.53
2023-05-07T05:08:34.068Z,5.47
2023-05-07T05:11:03.591Z,5.15
2023-05-07T05:13:31.920Z,6.05
2023-05-07T05:15:59.300Z,9.27
2023-05-07T05:18:27.249Z,6.50
2023-05-07T05:20:53.910Z,7.15
2023-05-07T05:23:21.109Z,5.32
2023-05-07T05:25:48.318Z,6.32
2023-05-07T05:28:15.795Z,6.60
2023-05-07T05:30:42.537Z,7.18
2023-05-07T05:33:09.720Z,9.95
2023-05-07T05:35:36.647Z,5.15
2023-05-07T05:38:05.805Z,6.72
2023-05-07T05:40:34.265Z,6.90
2023-05-07T05:43:01.372Z,8.75
2023-05-07T05:45:28.945Z,8.30
2023-05-07T05:47:57.666Z,6.57
2023-05-07T05:50:24.683Z,8.55
2023-05-07T05:52:52.772Z,7.10
2023-05-07T05:55:20.815Z,6.57
2023-05-07T05:57:47.426Z,7.07
2023-05-07T06:00:14.735Z,6.57
2023-05-07T06:02:47.463Z,6.13
2023-05-07T06:05:20.949Z,6.40
2023-05-07T06:07:51.009Z,6.50
2023-05-07T06:10:18.141Z,6.15
2023-05-07T06:12:45.472Z,7.63
2023-05-07T06:15:12.529Z,6.18
2023-05-07T06:17:40.583Z,5.75
2023-05-07T06:20:09.133Z,7.15
2023-05-07T06:22:36.052Z,8.75
2023-05-07T06:25:06.181Z,9.75
2023-05-07T06:27:33.134Z,9.70
2023-05-07T06:29:59.777Z,7.10
2023-05-07T06:32:26.430Z,9.43
2023-05-07T06:34:53.055Z,10.32
2023-05-07T06:37:19.804Z,7.22
2023-05-07T06:40:00.176Z,7.72
2023-05-07T06:42:28.038Z,7.70
2023-05-07T06:44:59.081Z,8.40
2023-05-07T06:47:26.973Z,8.73
2023-05-07T06:49:55.596Z,10.02
2023-05-07T06:52:25.743Z,10.18
2023-05-07T06:54:53.345Z,10.25
2023-05-07T06:57:22.015Z,9.00
2023-05-07T06:59:48.710Z,12.45
2023-05-07T07:02:17.709Z,10.80
2023-05-07T07:04:46.173Z,8.07
2023-05-07T07:07:13.657Z,7.57
2023-05-07T07:09:42.450Z,9.45
2023-05-07T07:12:10.314Z,8.73
2023-05-07T07:14:39.326Z,8.48
2023-05-07T07:19:33.466Z,6.45
2023-05-07T07:22:02.116Z,8.70
2023-05-07T07:24:29.373Z,7.60
2023-05-07T07:29:27.623Z,8.25
2023-05-07T07:31:54.887Z,7.78
2023-05-07T07:34:23.772Z,8.38
2023-05-07T07:36:51.100Z,6.40
2023-05-07T07:39:19.261Z,8.95
2023-05-07T07:41:48.395Z,7.18
2023-05-07T07:44:16.784Z,9.68
2023-05-07T07:49:15.954Z,8.40
2023-05-07T07:51:43.825Z,7.85
2023-05-07T07:54:12.036Z,8.75
2023-05-07T07:56:39.676Z,8.18
2023-05-07T07:59:07.698Z,7.47
2023-05-07T08:01:37.430Z,5.82
2023-05-07T08:04:06.539Z,16.25
2023-05-07T08:06:36.507Z,4.68
2023-05-07T08:09:03.878Z,6.18
2023-05-07T08:11:30.887Z,9.50
2023-05-07T08:13:58.742Z,5.97
2023-05-07T08:16:25.974Z,9.27
2023-05-07T08:18:53.203Z,6.97
2023-05-07T08:21:20.098Z,8.30
2023-05-07T08:23:46.813Z,9.38
2023-05-07T08:26:13.460Z,13.18
2023-05-07T08:28:43.085Z,10.68
2023-05-07T08:31:09.617Z,9.63
2023-05-07T08:33:39.610Z,11.48
2023-05-07T08:36:06.648Z,10.98
2023-05-07T08:38:33.633Z,11.35
2023-05-07T08:41:00.600Z,9.38
2023-05-07T08:43:33.795Z,10.77
2023-05-07T08:46:03.200Z,10.13
2023-05-07T08:48:33.650Z,11.25
2023-05-07T08:51:06.819Z,11.65
2023-05-07T08:53:34.180Z,13.45
2023-05-07T08:56:02.058Z,14.27
2023-05-07T08:58:30.046Z,12.98
2023-05-07T09:00:57.148Z,12.98
2023-05-07T09:03:25.003Z,15.60
2023-05-07T09:05:54.260Z,15.27
2023-05-07T09:08:26.309Z,15.63
2023-05-07T09:10:54.526Z,12.20
2023-05-07T09:13:22.711Z,17.30
2023-05-07T09:15:50.419Z,15.43
2023-05-07T09:18:17.447Z,14.25
2023-05-07T09:20:46.596Z,15.32
2023-05-07T09:23:14.809Z,23.08
2023-05-07T09:25:43.432Z,17.83
2023-05-07T09:28:16.698Z,23.35
2023-05-07T09:30:44.650Z,27.27
2023-05-07T09:33:13.281Z,20.67
2023-05-07T09:35:43.726Z,19.55
2023-05-07T09:38:18.716Z,24.15
2023-05-07T09:40:45.926Z,20.58
2023-05-07T09:43:15.274Z,22.10
2023-05-07T09:45:57.305Z,26.53
2023-05-07T09:48:28.108Z,28.45
2023-05-07T09:50:59.564Z,20.92
2023-05-07T09:53:30.870Z,27.20
2023-05-07T09:55:59.728Z,24.98
2023-05-07T09:58:27.294Z,19.67
2023-05-07T10:00:56.368Z,21.73
2023-05-07T10:03:25.621Z,21.88
2023-05-07T10:05:59.593Z,22.70
2023-05-07T10:08:27.261Z,18.35
2023-05-07T10:10:57.542Z,20.27
2023-05-07T10:13:26.747Z,18.85
2023-05-07T10:15:56.600Z,18.88
2023-05-07T10:18:30.803Z,16.75
2023-05-07T10:23:24.313Z,21.17
2023-05-07T10:26:00.685Z,35.25
2023-05-07T10:28:37.141Z,19.42
2023-05-07T10:31:12.306Z,17.13
2023-05-07T10:33:47.916Z,22.60
2023-05-07T10:36:15.900Z,17.33
2023-05-07T10:38:43.173Z,13.57
2023-05-07T10:41:12.294Z,17.30
2023-05-07T10:43:46.089Z,16.85
2023-05-07T10:46:22.008Z,14.85
2023-05-07T10:49:04.034Z,17.73
2023-05-07T10:51:39.892Z,18.98
2023-05-07T10:54:22.967Z,18.00
2023-05-07T10:56:57.357Z,17.10
2023-05-07T10:59:32.496Z,17.95
2023-05-07T11:02:07.428Z,14.30
2023-05-07T11:05:24.075Z,14.25
2023-05-07T11:08:05.534Z,11.00
2023-05-07T11:10:54.149Z,11.15
2023-05-07T11:13:44.768Z,10.38
2023-05-07T11:16:24.388Z,13.63
2023-05-07T11:21:45.288Z,10.20
2023-05-07T11:24:23.023Z,10.30
2023-05-07T11:26:56.793Z,7.55
2023-05-07T11:29:25.374Z,11.35
2023-05-07T11:31:58.781Z,13.00
2023-05-07T11:34:30.706Z,8.05
2023-05-07T11:36:59.850Z,14.35
2023-05-07T11:39:46.774Z,13.52
2023-05-07T11:42:30.750Z,9.93
2023-05-07T11:44:57.613Z,9.48
2023-05-07T11:47:25.310Z,8.93
2023-05-07T11:49:54.781Z,9.77
2023-05-07T11:52:23.035Z,9.13
2023-05-07T11:54:54.434Z,9.20
2023-05-07T11:57:21.470Z,7.03
2023-05-07T11:59:49.135Z,8.48
2023-05-07T12:02:16.797Z,9.63
2023-05-07T12:04:43.533Z,7.28
2023-05-07T12:07:14.629Z,7.30
2023-05-07T12:09:42.587Z,6.22
2023-05-07T12:12:09.533Z,8.27
2023-05-07T12:14:41.200Z,8.07
2023-05-07T12:17:12.260Z,8.02
2023-05-07T12:19:40.791Z,6.88
2023-05-07T12:22:09.273Z,9.30
2023-05-07T12:24:47.867Z,9.00
2023-05-07T12:27:15.779Z,11.65
2023-05-07T12:29:49.717Z,9.40
2023-05-07T12:32:20.804Z,11.18
2023-05-07T12:34:50.641Z,6.90
2023-05-07T12:37:26.092Z,12.88
2023-05-07T12:40:10.815Z,8.48
2023-05-07T12:42:41.117Z,8.00
2023-05-07T12:45:12.234Z,9.50
2023-05-07T12:47:39.376Z,5.37
2023-05-07T12:50:07.516Z,9.18
2023-05-07T12:52:35.073Z,5.60
2023-05-07T12:55:09.380Z,6.90
2023-05-07T12:57:49.990Z,6.63
2023-05-07T13:00:17.299Z,8.23
2023-05-07T13:02:47.861Z,5.72
2023-05-07T13:05:15.117Z,6.93
2023-05-07T13:07:42.620Z,6.72
2023-05-07T13:10:09.864Z,6.38
2023-05-07T13:12:36.832Z,6.40
2023-05-07T13:15:03.857Z,8.32
2023-05-07T13:17:32.855Z,9.02
2023-05-07T13:19:59.711Z,8.35
2023-05-07T13:22:26.388Z,6.47
2023-05-07T13:24:53.075Z,6.68
2023-05-07T13:27:20.588Z,9.55
2023-05-07T13:29:47.280Z,20.23
2023-05-07T13:32:13.872Z,19.83
2023-05-07T13:34:40.530Z,22.02
2023-05-07T13:37:11.208Z,15.85
2023-05-07T13:39:38.201Z,33.40
2023-05-07T13:42:04.829Z,15.90
2023-05-07T13:44:31.548Z,24.40
2023-05-07T13:46:58.082Z,9.50
2023-05-07T13:49:25.325Z,17.25
2023-05-07T13:51:51.825Z,11.40
2023-05-07T13:54:18.410Z,14.93
2023-05-07T13:56:44.952Z,7.03
2023-05-07T13:59:11.556Z,11.07
2023-05-07T14:01:38.238Z,6.10
2023-05-07T14:04:05.520Z,6.15
2023-05-07T14:06:32.657Z,5.93
2023-05-07T14:08:59.407Z,6.18
2023-05-07T14:11:26.046Z,7.88
2023-05-07T14:13:57.740Z,9.35
2023-05-07T14:16:24.566Z,10.48
2023-05-07T14:18:51.203Z,22.30
2023-05-07T14:21:18.631Z,12.18
2023-05-07T14:23:45.154Z,12.40
2023-05-07T14:26:11.794Z,23.20
2023-05-07T14:28:40.387Z,10.75
2023-05-07T14:31:07.482Z,18.92
2023-05-07T14:33:34.119Z,10.05
2023-05-07T14:36:00.715Z,11.30
2023-05-07T14:38:27.203Z,9.48
2023-05-07T14:40:56.812Z,12.23
2023-05-07T14:43:23.531Z,9.30
2023-05-07T14:45:51.052Z,8.95
2023-05-07T14:48:20.953Z,11.13
2023-05-07T14:50:49.132Z,8.65
2023-05-07T14:53:16.323Z,9.32
2023-05-07T14:55:43.014Z,9.00
2023-05-07T14:58:09.628Z,8.85
2023-05-07T15:00:36.565Z,12.35
2023-05-07T15:03:11.273Z,9.75
2023-05-07T15:05:40.673Z,7.82
2023-05-07T15:08:07.272Z,8.45
2023-05-07T15:10:42.440Z,9.25
2023-05-07T15:13:15.958Z,11.43
2023-05-07T15:15:46.958Z,15.13
2023-05-07T15:18:13.880Z,22.67
2023-05-07T15:20:41.329Z,11.63
2023-05-07T15:23:13.879Z,11.15
2023-05-07T15:25:47.230Z,11.88
2023-05-07T15:28:15.241Z,10.57
2023-05-07T15:30:41.813Z,9.48
2023-05-07T15:33:08.565Z,9.57
2023-05-07T15:35:35.127Z,12.93
2023-05-07T15:38:04.424Z,13.05
2023-05-07T15:40:31.318Z,10.93
2023-05-07T15:42:58.025Z,14.82
2023-05-07T15:45:25.104Z,12.13
2023-05-07T15:47:51.826Z,9.73
2023-05-07T15:50:18.560Z,10.48
2023-05-07T15:52:47.153Z,15.05
2023-05-07T15:55:14.222Z,10.88
2023-05-07T15:57:41.140Z,12.82
2023-05-07T16:00:09.752Z,14.13
2023-05-07T16:02:39.656Z,12.27
2023-05-07T16:05:12.076Z,13.45
2023-05-07T16:07:39.441Z,14.27
2023-05-07T16:10:07.764Z,15.18
2023-05-07T16:12:34.418Z,14.40
2023-05-07T16:15:01.264Z,11.38
2023-05-07T16:17:28.117Z,11.43
2023-05-07T16:19:54.787Z,12.27
2023-05-07T16:22:22.077Z,11.75
2023-05-07T16:24:51.942Z,11.27
2023-05-07T16:27:18.619Z,16.92
2023-05-07T16:29:45.171Z,43.08
2023-05-07T16:32:13.973Z,20.10
2023-05-07T16:34:40.605Z,13.05
2023-05-07T16:37:07.668Z,10.23
2023-05-07T16:39:34.284Z,12.18
2023-05-07T16:42:01.719Z,21.92
2023-05-07T16:44:28.247Z,18.48
2023-05-07T16:46:54.819Z,21.65
2023-05-07T16:49:21.404Z,9.57
2023-05-07T16:51:48.698Z,12.80
2023-05-07T16:54:15.209Z,18.55
2023-05-07T16:56:42.809Z,15.90
2023-05-07T16:59:12.040Z,30.65
2023-05-07T17:01:38.824Z,16.30
2023-05-07T17:04:05.631Z,44.58
2023-05-07T17:06:32.583Z,33.15
2023-05-07T17:08:59.065Z,19.17
2023-05-07T17:11:27.917Z,12.15
2023-05-07T17:13:54.928Z,18.33
2023-05-07T17:16:21.539Z,13.25
2023-05-07T17:18:48.121Z,19.02
2023-05-07T17:21:14.661Z,20.15
2023-05-07T17:23:41.248Z,16.60
2023-05-07T17:26:17.510Z,15.27
2023-05-07T17:28:44.485Z,15.48
2023-05-07T17:31:11.247Z,12.88
2023-05-07T17:33:38.019Z,10.88
2023-05-07T17:36:05.005Z,13.32
2023-05-07T17:38:32.101Z,11.27
2023-05-07T17:40:59.709Z,15.10
2023-05-07T17:43:26.355Z,10.20
2023-05-07T17:45:53.224Z,13.98
2023-05-07T17:48:20.522Z,11.23
2023-05-07T17:50:47.076Z,12.40
2023-05-07T17:53:16.358Z,14.15
2023-05-07T17:55:44.346Z,13.40
2023-05-07T17:58:13.405Z,15.43
2023-05-07T18:00:40.633Z,15.13
2023-05-07T18:03:07.338Z,16.33
2023-05-07T18:05:36.644Z,14.52
2023-05-07T18:08:03.701Z,18.45
2023-05-07T18:10:30.307Z,15.52
2023-05-07T18:12:57.109Z,15.13
2023-05-07T18:15:23.925Z,15.48
2023-05-07T18:17:50.635Z,16.83
2023-05-07T18:20:20.809Z,16.30
2023-05-07T18:22:47.453Z,16.05
2023-05-07T18:25:14.014Z,19.40
2023-05-07T18:27:41.152Z,14.13
2023-05-07T18:30:08.891Z,15.50
2023-05-07T18:32:35.832Z,13.98
2023-05-07T18:35:04.521Z,11.85
2023-05-07T18:37:31.198Z,14.05
2023-05-07T18:39:58.105Z,16.67
2023-05-07T18:42:28.881Z,16.55
2023-05-07T18:44:55.841Z,14.30
2023-05-07T18:47:22.535Z,14.68
2023-05-07T18:49:49.598Z,17.20
2023-05-07T18:52:18.031Z,17.52
2023-05-07T18:54:48.641Z,17.45
2023-05-07T18:57:16.637Z,22.13
2023-05-07T18:59:45.966Z,16.45
2023-05-07T19:02:27.088Z,20.85
2023-05-07T19:04:59.887Z,22.35
2023-05-07T19:07:29.392Z,22.75
2023-05-07T19:10:04.849Z,18.38
2023-05-07T19:12:34.350Z,22.45
2023-05-07T19:15:01.083Z,22.17
2023-05-07T19:17:27.832Z,17.85
2023-05-07T19:19:54.465Z,21.45
2023-05-07T19:22:21.529Z,17.38
2023-05-07T19:24:48.277Z,17.45
2023-05-07T19:27:20.954Z,18.10
2023-05-07T19:29:53.515Z,13.23
2023-05-07T19:32:23.051Z,13.77
2023-05-07T19:34:53.917Z,15.23
2023-05-07T19:37:32.780Z,16.63
2023-05-07T19:40:08.686Z,13.80
2023-05-07T19:42:49.614Z,15.97
2023-05-07T19:45:20.826Z,18.20
2023-05-07T19:48:06.105Z,18.03
2023-05-07T19:50:38.629Z,17.33
2023-05-07T19:53:15.465Z,18.83
2023-05-07T19:55:46.643Z,15.95
2023-05-07T19:58:17.135Z,18.17
2023-05-07T20:00:52.801Z,18.60
2023-05-07T20:03:19.846Z,17.80
2023-05-07T20:05:47.544Z,18.60
2023-05-07T20:08:15.186Z,18.33
2023-05-07T20:10:41.898Z,20.80
2023-05-07T20:13:08.735Z,21.40
2023-05-07T20:15:38.982Z,20.05
2023-05-07T20:18:05.910Z,18.75
2023-05-07T20:20:35.506Z,22.58
2023-05-07T20:23:02.579Z,19.17
2023-05-07T20:25:29.190Z,18.00
2023-05-07T20:27:56.449Z,16.70
2023-05-07T20:30:24.290Z,19.23
2023-05-07T20:32:51.236Z,21.95
2023-05-07T20:35:18.014Z,20.13
2023-05-07T20:37:44.751Z,14.35
2023-05-07T20:40:12.116Z,15.48
2023-05-07T20:42:38.916Z,18.67
2023-05-07T20:45:06.177Z,14.27
2023-05-07T20:47:33.861Z,16.23
2023-05-07T20:50:00.582Z,16.58
2023-05-07T20:52:28.541Z,13.30
2023-05-07T20:54:55.158Z,17.75
2023-05-07T20:57:24.153Z,13.43
2023-05-07T20:59:50.806Z,15.18
2023-05-07T21:02:17.453Z,12.02
2023-05-07T21:04:44.084Z,14.07
2023-05-07T21:07:10.840Z,11.63
2023-05-07T21:09:37.453Z,10.65
2023-05-07T21:12:04.488Z,11.18
2023-05-07T21:14:31.000Z,10.45
2023-05-07T21:16:59.541Z,11.48
2023-05-07T21:19:26.642Z,12.95
2023-05-07T21:21:57.609Z,15.93
2023-05-07T21:24:25.287Z,11.80
2023-05-07T21:26:55.351Z,10.98
2023-05-07T21:29:22.241Z,13.15
2023-05-07T21:31:49.407Z,17.08
2023-05-07T21:34:16.393Z,9.80
2023-05-07T21:36:46.042Z,9.25
2023-05-07T21:39:12.987Z,7.82
2023-05-07T21:41:41.918Z,8.45
2023-05-07T21:44:09.002Z,10.75
2023-05-07T21:46:35.645Z,8.48
2023-05-07T21:49:02.264Z,8.45
2023-05-07T21:51:29.671Z,16.23
2023-05-07T21:53:56.356Z,10.00
2023-05-07T21:56:22.866Z,11.00
2023-05-07T21:58:49.489Z,11.50
2023-05-07T22:01:16.087Z,11.35
2023-05-07T22:03:45.866Z,12.77
2023-05-07T22:06:12.474Z,9.40
2023-05-07T22:08:39.184Z,8.80
2023-05-07T22:11:06.775Z,10.00
2023-05-07T22:13:36.100Z,9.73
2023-05-07T22:16:04.034Z,6.68
2023-05-07T22:18:30.693Z,8.95
2023-05-07T22:20:57.187Z,7.45
2023-05-07T22:23:24.133Z,10.13
2023-05-07T22:25:50.647Z,8.80
2023-05-07T22:28:17.389Z,9.27
2023-05-07T22:30:44.168Z,7.75
2023-05-07T22:33:10.816Z,9.77
2023-05-07T22:35:37.297Z,9.57
2023-05-07T22:38:03.936Z,9.80
2023-05-07T22:40:30.436Z,8.85
2023-05-07T22:42:57.128Z,8.77
2023-05-07T22:45:23.718Z,8.93
2023-05-07T22:47:53.386Z,8.60
2023-05-07T22:50:20.032Z,8.55
2023-05-07T22:52:46.616Z,10.10
2023-05-07T22:55:13.397Z,8.18
2023-05-07T22:57:40.043Z,10.38
2023-05-07T23:00:07.488Z,9.50
2023-05-07T23:02:34.096Z,11.07
2023-05-07T23:05:01.653Z,9.15
2023-05-07T23:07:28.538Z,9.40
2023-05-07T23:09:55.184Z,10.43
2023-05-07T23:12:21.678Z,8.95
2023-05-07T23:14:48.284Z,10.45
2023-05-07T23:17:14.886Z,9.60
2023-05-07T23:19:41.825Z,11.82
2023-05-07T23:22:08.534Z,12.63
2023-05-07T23:24:35.095Z,12.30
2023-05-07T23:27:05.470Z,9.82
2023-05-07T23:29:32.735Z,15.45
2023-05-07T23:31:59.862Z,9.25
2023-05-07T23:34:26.834Z,10.73
2023-05-07T23:36:54.014Z,10.50
2023-05-07T23:39:20.834Z,15.85
2023-05-07T23:41:47.808Z,12.23
2023-05-07T23:44:16.476Z,13.98
2023-05-07T23:46:46.407Z,12.27
2023-05-07T23:49:13.049Z,14.02
2023-05-07T23:51:39.563Z,9.90
2023-05-07T23:54:06.665Z,12.55
2023-05-07T23:56:33.532Z,13.63
2023-05-07T23:59:00.271Z,9.77
